Time;durP1;ratioP1;P1;durP2;ratioP2;P2;SDS_P1;SDS_P2;PMS_P1;PMS_P2;Temp;Humidity;BMP_temperature;BMP_pressure;BME280_temperature;BME280_humidity;BME280_pressure;Samples;Min_cycle;Max_cycle;Signal;HPM_P1;HPM_P2
2022/07/06 00:00:20;;;;;;;4.73;2.97;;;13.70;1.00;;;;;;5011765;28;20235;-62
2022/07/06 00:02:47;;;;;;;4.87;2.17;;;13.70;1.00;;;;;;5012687;28;20591;-62
2022/07/06 00:05:15;;;;;;;3.20;2.33;;;13.60;1.00;;;;;;5012176;28;20679;-62
2022/07/06 00:07:41;;;;;;;8.57;3.37;;;13.60;99.90;;;;;;5012241;28;20648;-62
2022/07/06 00:10:08;;;;;;;4.13;2.17;;;13.60;99.90;;;;;;5012356;28;20712;-61
2022/07/06 00:12:35;;;;;;;4.70;2.67;;;13.60;99.90;;;;;;5012556;28;20242;-62
2022/07/06 00:15:01;;;;;;;6.20;2.40;;;13.60;99.90;;;;;;5012275;28;20275;-62
2022/07/06 00:17:28;;;;;;;7.43;2.60;;;13.60;99.90;;;;;;5011973;28;20236;-61
2022/07/06 00:19:55;;;;;;;6.20;2.40;;;13.60;99.90;;;;;;5012423;28;20240;-62
2022/07/06 00:22:23;;;;;;;4.70;2.40;;;13.50;99.90;;;;;;5012299;28;20213;-62
2022/07/06 00:24:50;;;;;;;3.97;2.50;;;13.50;99.90;;;;;;5012313;28;20746;-62
2022/07/06 00:27:16;;;;;;;4.30;2.63;;;13.50;99.90;;;;;;5011494;28;20239;-62
2022/07/06 00:29:43;;;;;;;5.13;2.37;;;13.50;99.90;;;;;;5012198;28;20203;-63
2022/07/06 00:32:11;;;;;;;4.43;2.63;;;13.50;99.90;;;;;;5011896;28;20300;-62
2022/07/06 00:34:39;;;;;;;4.00;2.43;;;13.50;99.90;;;;;;5012495;28;20216;-63
2022/07/06 00:37:06;;;;;;;3.73;2.03;;;13.50;99.90;;;;;;5012010;28;20236;-61
2022/07/06 00:39:34;;;;;;;2.93;2.40;;;13.50;99.90;;;;;;5012265;28;20226;-61
2022/07/06 00:42:01;;;;;;;5.87;2.60;;;13.50;99.90;;;;;;5012337;28;20207;-60
2022/07/06 00:44:28;;;;;;;3.40;2.30;;;13.50;99.90;;;;;;5012032;28;20211;-60
2022/07/06 00:46:55;;;;;;;4.53;3.03;;;13.40;94.90;;;;;;5011521;28;20214;-59
2022/07/06 00:52:06;;;;;;;4.57;2.20;;;13.40;96.10;;;;;;5012110;28;20251;-59
2022/07/06 00:54:36;;;;;;;4.97;2.13;;;13.40;1.00;;;;;;5011747;28;20208;-61
2022/07/06 00:57:03;;;;;;;2.43;2.20;;;13.40;1.00;;;;;;5011539;28;20373;-60
2022/07/06 00:59:31;;;;;;;4.00;2.53;;;13.30;1.00;;;;;;5012058;28;20223;-60
2022/07/06 01:01:58;;;;;;;5.70;2.80;;;13.20;1.00;;;;;;5011960;28;20768;-60
2022/07/06 01:04:25;;;;;;;4.03;2.27;;;13.20;1.00;;;;;;5011994;28;20215;-61
2022/07/06 01:06:51;;;;;;;3.67;2.50;;;13.10;20.70;;;;;;5011284;28;20202;-61
2022/07/06 01:09:19;;;;;;;2.73;2.23;;;13.00;63.30;;;;;;5011817;28;20685;-61
2022/07/06 01:11:48;;;;;;;4.57;2.23;;;13.00;74.90;;;;;;5014120;28;20207;-61
2022/07/06 01:14:15;;;;;;;4.97;2.40;;;13.00;99.90;;;;;;5015924;28;20264;-60
2022/07/06 01:16:42;;;;;;;2.87;2.17;;;13.00;99.90;;;;;;5015586;28;20215;-59
2022/07/06 01:19:08;;;;;;;2.40;1.83;;;13.00;99.90;;;;;;5015443;28;20223;-58
2022/07/06 01:21:38;;;;;;;4.73;2.20;;;13.00;99.90;;;;;;5015855;28;20207;-60
2022/07/06 01:24:05;;;;;;;6.70;2.13;;;13.00;99.90;;;;;;5015441;28;20215;-58
2022/07/06 01:26:32;;;;;;;2.87;1.90;;;13.00;99.90;;;;;;5014963;28;20208;-61
2022/07/06 01:28:59;;;;;;;3.87;1.70;;;13.00;99.90;;;;;;5015798;28;20273;-58
2022/07/06 01:31:27;;;;;;;2.63;1.90;;;13.10;99.90;;;;;;5015531;28;20242;-60
2022/07/06 01:33:57;;;;;;;3.60;2.00;;;13.10;99.90;;;;;;5015336;28;20591;-60
2022/07/06 01:36:24;;;;;;;2.77;2.20;;;13.10;99.90;;;;;;5014917;28;20289;-60
2022/07/06 01:38:53;;;;;;;3.40;1.93;;;13.10;99.90;;;;;;5014983;28;20771;-60
2022/07/06 01:41:21;;;;;;;2.50;2.23;;;13.10;99.90;;;;;;5014970;28;20757;-60
2022/07/06 01:43:48;;;;;;;2.67;2.00;;;13.10;99.90;;;;;;5015267;28;20207;-60
2022/07/06 01:46:15;;;;;;;2.67;1.80;;;13.20;99.90;;;;;;5014744;28;20210;-61
2022/07/06 01:48:42;;;;;;;3.23;1.97;;;13.20;47.30;;;;;;5015257;28;20231;-60
2022/07/06 01:51:08;;;;;;;6.30;2.10;;;13.20;42.40;;;;;;5015007;28;20211;-61
2022/07/06 01:53:35;;;;;;;3.53;2.03;;;13.20;14.10;;;;;;5014975;28;20274;-62
2022/07/06 01:56:03;;;;;;;2.60;2.00;;;13.20;13.20;;;;;;5014753;28;20207;-61
2022/07/06 01:58:30;;;;;;;2.93;2.07;;;13.10;50.50;;;;;;5014792;28;20223;-61
2022/07/06 02:00:57;;;;;;;6.30;2.40;;;13.10;73.90;;;;;;5014994;28;20227;-61
2022/07/06 02:03:23;;;;;;;3.90;2.03;;;13.10;59.20;;;;;;5014694;28;20208;-61
2022/07/06 02:05:50;;;;;;;5.00;1.90;;;13.20;39.30;;;;;;5014547;28;20625;-61
2022/07/06 02:08:17;;;;;;;5.30;2.37;;;13.20;13.90;;;;;;5014599;28;20254;-62
2022/07/06 02:10:44;;;;;;;4.93;2.27;;;13.20;1.00;;;;;;5014815;28;20199;-61
2022/07/06 02:13:12;;;;;;;3.30;2.20;;;13.20;1.00;;;;;;5014655;28;20216;-61
2022/07/06 02:15:38;;;;;;;5.13;2.50;;;13.20;1.00;;;;;;5014472;28;20269;-61
2022/07/06 02:18:05;;;;;;;6.10;2.40;;;13.20;1.00;;;;;;5014248;28;20304;-61
2022/07/06 02:20:32;;;;;;;3.33;2.40;;;13.10;1.00;;;;;;5014060;28;20227;-62
2022/07/06 02:22:58;;;;;;;4.90;2.33;;;13.00;32.00;;;;;;5013681;28;20260;-61
2022/07/06 02:25:25;;;;;;;4.47;1.93;;;13.00;81.30;;;;;;5014600;28;20277;-61
2022/07/06 02:27:52;;;;;;;4.53;2.20;;;13.00;99.90;;;;;;5013996;28;20247;-61
2022/07/06 02:30:20;;;;;;;3.33;2.53;;;12.80;99.90;;;;;;5014342;28;20256;-63
2022/07/06 02:32:47;;;;;;;3.70;2.40;;;12.70;92.80;;;;;;5014188;28;20207;-58
2022/07/06 02:35:14;;;;;;;5.07;2.03;;;12.60;1.00;;;;;;5014330;28;20206;-61
2022/07/06 02:37:41;;;;;;;4.57;2.40;;;12.50;1.00;;;;;;5013825;28;20226;-61
2022/07/06 02:40:09;;;;;;;4.30;2.40;;;12.50;1.00;;;;;;5014503;28;20300;-61
2022/07/06 02:42:36;;;;;;;3.37;2.10;;;12.50;1.00;;;;;;5014193;28;20792;-61
2022/07/06 02:45:02;;;;;;;3.97;2.13;;;12.50;30.10;;;;;;5014264;28;20265;-61
2022/07/06 02:47:30;;;;;;;1.90;1.70;;;12.50;21.70;;;;;;5013864;28;20235;-61
2022/07/06 02:49:57;;;;;;;2.83;1.80;;;12.40;43.10;;;;;;5014066;28;20642;-61
2022/07/06 02:52:24;;;;;;;4.00;2.17;;;12.40;99.90;;;;;;5016218;28;20821;-61
2022/07/06 02:54:50;;;;;;;6.53;2.73;;;12.30;1.00;;;;;;5019759;28;20736;-62
2022/07/06 02:57:18;;;;;;;5.13;2.53;;;12.20;99.90;;;;;;5018237;28;20281;-62
2022/07/06 02:59:45;;;;;;;3.50;2.27;;;12.20;1.00;;;;;;5013472;28;20283;-63
2022/07/06 03:02:12;;;;;;;5.60;2.10;;;12.20;99.90;;;;;;5013600;28;20298;-62
2022/07/06 03:04:40;;;;;;;3.80;1.73;;;12.10;1.00;;;;;;5013760;28;20270;-62
2022/07/06 03:07:07;;;;;;;4.20;2.07;;;12.10;69.00;;;;;;5013186;28;20269;-62
2022/07/06 03:09:34;;;;;;;4.70;2.00;;;12.00;1.00;;;;;;5013677;28;20211;-62
2022/07/06 03:12:00;;;;;;;2.47;2.00;;;12.00;99.90;;;;;;5013232;28;20923;-61
2022/07/06 03:14:27;;;;;;;4.07;1.90;;;12.00;99.90;;;;;;5013690;28;20268;-62
2022/07/06 03:16:54;;;;;;;4.47;2.07;;;12.00;1.00;;;;;;5012716;28;20243;-62
2022/07/06 03:19:21;;;;;;;5.27;2.13;;;12.00;1.00;;;;;;5013163;28;20203;-62
2022/07/06 03:21:49;;;;;;;5.60;2.03;;;12.00;1.00;;;;;;5013660;28;20203;-61
2022/07/06 03:24:16;;;;;;;5.00;2.17;;;12.00;3.30;;;;;;5013238;28;20203;-62
2022/07/06 03:26:43;;;;;;;3.33;2.23;;;11.90;99.90;;;;;;5012824;28;20580;-61
2022/07/06 03:29:10;;;;;;;3.43;2.37;;;11.90;99.90;;;;;;5013028;28;20284;-58
2022/07/06 03:31:36;;;;;;;2.60;1.90;;;11.90;99.90;;;;;;5013336;28;20283;-59
2022/07/06 03:34:03;;;;;;;3.30;2.20;;;11.80;1.00;;;;;;5013078;28;20207;-62
2022/07/06 03:36:30;;;;;;;6.93;2.07;;;11.80;87.30;;;;;;5012976;28;20222;-62
2022/07/06 03:38:58;;;;;;;3.80;2.17;;;11.80;99.90;;;;;;5012785;28;20645;-62
2022/07/06 03:41:24;;;;;;;4.63;2.00;;;11.80;99.90;;;;;;5013036;28;20277;-62
2022/07/06 03:43:51;;;;;;;3.17;1.90;;;11.80;99.90;;;;;;5012779;28;20285;-61
2022/07/06 03:46:18;;;;;;;3.23;1.90;;;11.70;1.00;;;;;;5012556;28;20211;-64
2022/07/06 03:48:44;;;;;;;4.57;2.40;;;11.80;1.00;;;;;;5012858;28;20231;-64
2022/07/06 03:51:11;;;;;;;5.40;2.23;;;11.80;1.00;;;;;;5012795;28;20199;-63
2022/07/06 03:53:38;;;;;;;5.03;2.47;;;11.90;1.00;;;;;;5013231;28;20203;-62
2022/07/06 03:58:50;;;;;;;3.67;2.40;;;11.90;28.10;;;;;;5012715;28;20234;-61
2022/07/06 04:01:17;;;;;;;5.27;2.30;;;11.90;49.20;;;;;;5012750;28;20651;-61
2022/07/06 04:03:44;;;;;;;4.70;2.53;;;11.90;65.80;;;;;;5012548;28;20211;-64
2022/07/06 04:06:11;;;;;;;3.47;2.40;;;12.00;72.30;;;;;;5012430;28;20269;-62
2022/07/06 04:08:37;;;;;;;8.30;2.37;;;12.00;72.10;;;;;;5012260;28;20712;-61
2022/07/06 04:11:06;;;;;;;3.03;1.97;;;12.00;70.70;;;;;;5012369;28;20203;-62
2022/07/06 04:13:33;;;;;;;4.33;2.17;;;12.10;69.60;;;;;;5012356;28;20210;-63
2022/07/06 04:16:00;;;;;;;4.60;2.43;;;12.20;68.10;;;;;;5012452;28;20265;-60
2022/07/06 04:18:27;;;;;;;4.83;2.30;;;12.20;65.50;;;;;;5012451;28;20277;-61
2022/07/06 04:20:53;;;;;;;4.90;2.30;;;12.30;60.80;;;;;;5012364;28;20226;-61
2022/07/06 04:23:20;;;;;;;9.70;2.53;;;12.40;56.80;;;;;;5012123;28;20930;-63
2022/07/06 04:25:47;;;;;;;2.27;1.97;;;12.40;54.30;;;;;;5012111;28;20657;-62
2022/07/06 04:28:15;;;;;;;5.43;2.47;;;12.40;52.70;;;;;;5012570;28;20713;-60
2022/07/06 04:30:41;;;;;;;6.53;2.47;;;12.50;52.30;;;;;;5013729;28;20208;-60
2022/07/06 04:33:08;;;;;;;10.20;2.60;;;12.60;49.70;;;;;;5012097;28;20210;-59
2022/07/06 04:35:35;;;;;;;5.27;2.30;;;12.50;38.20;;;;;;5012418;28;20646;-58
2022/07/06 04:38:01;;;;;;;3.77;2.17;;;12.60;38.00;;;;;;5011667;28;20243;-58
2022/07/06 04:40:28;;;;;;;7.17;2.43;;;12.70;32.60;;;;;;5012250;28;20333;-58
2022/07/06 04:42:55;;;;;;;2.43;2.20;;;12.70;25.50;;;;;;5007215;28;20639;-61
2022/07/06 04:45:23;;;;;;;4.47;2.37;;;12.80;18.30;;;;;;4998985;28;20259;-62
2022/07/06 04:47:49;;;;;;;4.97;2.20;;;12.90;9.40;;;;;;4991641;28;20271;-61
2022/07/06 04:50:16;;;;;;;7.10;2.97;;;13.00;1.00;;;;;;4992384;28;20288;-60
2022/07/06 04:52:43;;;;;;;6.53;2.20;;;13.10;1.00;;;;;;4992153;28;20213;-60
2022/07/06 04:55:10;;;;;;;4.07;2.40;;;13.10;1.00;;;;;;4991970;28;20207;-61
2022/07/06 04:57:36;;;;;;;4.67;2.17;;;13.20;1.00;;;;;;5005327;28;20233;-60
2022/07/06 05:00:05;;;;;;;4.53;2.13;;;13.20;1.00;;;;;;5011553;28;20211;-61
2022/07/06 05:02:33;;;;;;;4.53;2.10;;;13.30;1.00;;;;;;5012105;28;20211;-61
2022/07/06 05:04:59;;;;;;;7.50;2.43;;;13.40;1.00;;;;;;5011376;28;20711;-62
2022/07/06 05:07:28;;;;;;;6.63;2.80;;;13.50;1.00;;;;;;5011164;28;20303;-60
2022/07/06 05:09:55;;;;;;;3.17;2.43;;;13.50;99.90;;;;;;5012639;28;20234;-61
2022/07/06 05:12:22;;;;;;;3.13;2.30;;;13.50;99.90;;;;;;5011789;28;20207;-61
2022/07/06 05:14:49;;;;;;;5.23;2.47;;;13.60;99.90;;;;;;5011935;28;20208;-61
2022/07/06 05:17:16;;;;;;;5.10;2.67;;;13.60;99.90;;;;;;5011349;28;20227;-58
2022/07/06 05:19:44;;;;;;;4.80;2.77;;;13.60;90.60;;;;;;5002197;28;20204;-63
2022/07/06 05:22:11;;;;;;;5.73;2.67;;;13.70;72.60;;;;;;5011241;28;20595;-62
2022/07/06 05:24:37;;;;;;;8.63;2.70;;;13.90;1.00;;;;;;5011584;28;20363;-63
2022/07/06 05:27:05;;;;;;;5.00;2.50;;;13.90;1.00;;;;;;5010899;28;20243;-63
2022/07/06 05:29:31;;;;;;;5.07;2.77;;;14.00;99.90;;;;;;5011036;28;20215;-59
2022/07/06 05:31:58;;;;;;;6.63;2.60;;;13.80;1.00;;;;;;5011090;28;20262;-61
2022/07/06 05:34:25;;;;;;;5.97;2.63;;;13.80;99.90;;;;;;5010755;28;20263;-60
2022/07/06 05:36:53;;;;;;;5.37;2.53;;;13.70;99.90;;;;;;5010554;28;20213;-61
2022/07/06 05:39:22;;;;;;;4.53;2.17;;;13.80;1.00;;;;;;5011431;28;20220;-62
2022/07/06 05:41:49;;;;;;;6.07;2.60;;;13.70;1.00;;;;;;5010471;28;20710;-60
2022/07/06 05:44:16;;;;;;;5.27;2.17;;;13.70;99.90;;;;;;5011055;28;20212;-58
2022/07/06 05:46:42;;;;;;;5.43;2.87;;;13.70;99.90;;;;;;5010387;28;20286;-59
2022/07/06 05:51:55;;;;;;;3.97;2.37;;;13.70;59.60;;;;;;5010781;28;20198;-59
2022/07/06 05:54:21;;;;;;;12.00;2.70;;;13.70;99.90;;;;;;5010097;28;20220;-61
2022/07/06 05:56:48;;;;;;;8.70;2.60;;;13.80;99.90;;;;;;5010570;28;20291;-61
2022/07/06 05:59:14;;;;;;;5.63;2.67;;;13.90;1.00;;;;;;5013132;28;20280;-62
2022/07/06 06:01:41;;;;;;;5.03;2.30;;;14.00;1.00;;;;;;5014329;28;20299;-63
2022/07/06 06:04:08;;;;;;;4.80;2.20;;;14.10;99.90;;;;;;5014501;28;20205;-61
2022/07/06 06:06:35;;;;;;;4.87;2.13;;;14.20;56.70;;;;;;5013506;28;20628;-62
2022/07/06 06:09:03;;;;;;;2.70;2.10;;;14.30;99.90;;;;;;5014234;28;20238;-59
2022/07/06 06:11:29;;;;;;;3.23;2.00;;;14.50;97.40;;;;;;5014073;28;20274;-62
2022/07/06 06:13:56;;;;;;;4.50;2.13;;;14.50;1.00;;;;;;5014136;28;20210;-60
2022/07/06 06:16:23;;;;;;;4.43;1.67;;;14.60;1.00;;;;;;5013889;28;20910;-55
2022/07/06 06:18:49;;;;;;;5.63;1.93;;;14.70;99.90;;;;;;5014097;28;20233;-58
2022/07/06 06:21:16;;;;;;;4.70;1.57;;;15.00;1.00;;;;;;5014042;28;20315;-55
2022/07/06 06:23:42;;;;;;;6.87;1.93;;;15.20;28.80;;;;;;5014012;28;20569;-56
2022/07/06 06:26:11;;;;;;;4.50;1.50;;;15.30;1.00;;;;;;5014232;28;20207;-60
2022/07/06 06:28:37;;;;;;;4.73;1.10;;;15.40;1.00;;;;;;5014265;28;20243;-60
2022/07/06 06:31:04;;;;;;;3.23;1.10;;;15.60;99.90;;;;;;5014696;28;20210;-60
2022/07/06 06:33:31;;;;;;;2.27;1.07;;;15.70;94.50;;;;;;5014060;28;20219;-59
2022/07/06 06:35:57;;;;;;;3.93;1.33;;;15.80;1.00;;;;;;5012910;28;20211;-60
2022/07/06 06:38:26;;;;;;;6.40;1.53;;;15.70;99.90;;;;;;5013866;28;20231;-60
2022/07/06 06:40:53;;;;;;;2.97;1.17;;;15.60;99.90;;;;;;5012957;28;20688;-61
2022/07/06 06:43:21;;;;;;;2.53;1.20;;;15.50;99.90;;;;;;5013551;28;20326;-61
2022/07/06 06:45:48;;;;;;;3.10;1.20;;;15.60;6.40;;;;;;5013543;28;20213;-60
2022/07/06 06:48:14;;;;;;;1.10;0.80;;;15.50;99.90;;;;;;5012756;28;20231;-61
2022/07/06 06:50:41;;;;;;;2.97;1.27;;;15.60;1.00;;;;;;5013455;28;20210;-61
2022/07/06 06:53:08;;;;;;;4.60;1.13;;;15.50;1.00;;;;;;5012920;28;20237;-62
2022/07/06 06:55:34;;;;;;;5.80;1.10;;;15.60;99.90;;;;;;5013378;28;20218;-62
2022/07/06 06:58:01;;;;;;;5.83;1.10;;;15.60;99.90;;;;;;5012965;28;20281;-61
2022/07/06 07:00:29;;;;;;;5.03;1.27;;;15.70;99.90;;;;;;5012400;28;20211;-62
2022/07/06 07:02:56;;;;;;;5.20;1.10;;;15.70;99.90;;;;;;5012909;28;20670;-62
2022/07/06 07:05:23;;;;;;;2.93;1.00;;;15.70;99.90;;;;;;5012816;28;20736;-62
2022/07/06 07:07:50;;;;;;;3.80;1.30;;;15.90;99.90;;;;;;5012765;28;20234;-64
2022/07/06 07:10:16;;;;;;;7.23;1.20;;;16.00;1.00;;;;;;5012242;28;20579;-62
2022/07/06 07:12:44;;;;;;;2.90;0.90;;;16.00;8.80;;;;;;5012652;28;20673;-62
2022/07/06 07:15:11;;;;;;;2.13;0.90;;;15.90;1.00;;;;;;5013036;28;20215;-64
2022/07/06 07:17:39;;;;;;;2.00;1.00;;;16.10;1.00;;;;;;5012272;28;20321;-61
2022/07/06 07:20:08;;;;;;;1.93;0.80;;;16.30;1.00;;;;;;5012998;28;20796;-62
2022/07/06 07:22:34;;;;;;;4.20;1.00;;;16.50;1.00;;;;;;5012083;28;20227;-62
2022/07/06 07:25:01;;;;;;;2.60;0.80;;;16.60;1.00;;;;;;5012817;28;20215;-61
2022/07/06 07:27:28;;;;;;;3.60;1.00;;;16.60;1.00;;;;;;5012146;28;20783;-54
2022/07/06 07:29:54;;;;;;;4.90;0.90;;;16.50;1.00;;;;;;5012557;28;20207;-60
2022/07/06 07:32:21;;;;;;;5.27;0.90;;;16.40;1.00;;;;;;5012585;28;20222;-60
2022/07/06 07:34:49;;;;;;;3.83;0.80;;;16.40;1.00;;;;;;5012637;28;20672;-60
2022/07/06 07:37:16;;;;;;;1.87;0.90;;;16.50;99.90;;;;;;5011810;28;20227;-61
2022/07/06 07:39:43;;;;;;;1.97;0.77;;;16.40;1.00;;;;;;5012894;28;20626;-59
2022/07/06 07:42:09;;;;;;;3.07;1.20;;;16.40;99.90;;;;;;5011993;28;20226;-61
2022/07/06 07:44:38;;;;;;;6.30;1.37;;;16.40;99.90;;;;;;5012387;28;20302;-61
2022/07/06 07:47:05;;;;;;;2.23;1.03;;;16.40;99.90;;;;;;5011514;28;20231;-62
2022/07/06 07:49:32;;;;;;;5.63;1.23;;;16.40;99.90;;;;;;5012482;28;20222;-63
2022/07/06 07:52:00;;;;;;;3.57;0.97;;;16.60;99.90;;;;;;5012082;28;20585;-59
2022/07/06 07:54:27;;;;;;;2.17;0.80;;;16.80;99.90;;;;;;5012230;28;20211;-60
2022/07/06 07:56:54;;;;;;;3.07;0.70;;;17.00;99.90;;;;;;5011778;28;20207;-61
2022/07/06 07:59:20;;;;;;;2.63;0.90;;;17.20;99.90;;;;;;5011943;28;20213;-61
2022/07/06 08:01:47;;;;;;;4.50;0.90;;;17.00;99.90;;;;;;5012409;28;20222;-62
2022/07/06 08:04:14;;;;;;;2.00;0.90;;;16.80;99.90;;;;;;5012028;28;20210;-62
2022/07/06 08:06:40;;;;;;;1.93;1.10;;;16.70;99.90;;;;;;5011752;28;20211;-63
2022/07/06 08:09:08;;;;;;;4.47;1.23;;;16.90;99.90;;;;;;5011963;28;20273;-64
2022/07/06 08:11:35;;;;;;;1.80;0.67;;;16.90;99.90;;;;;;5011534;28;20276;-64
2022/07/06 08:14:03;;;;;;;3.47;1.10;;;16.90;99.90;;;;;;5012249;28;20211;-64
2022/07/06 08:16:30;;;;;;;5.23;0.97;;;17.00;99.90;;;;;;5011861;28;20207;-64
2022/07/06 08:18:57;;;;;;;2.80;0.70;;;17.10;99.90;;;;;;5011455;28;20223;-64
2022/07/06 08:21:24;;;;;;;5.53;1.13;;;17.30;99.90;;;;;;5011079;28;20612;-65
2022/07/06 08:23:51;;;;;;;2.63;1.50;;;17.20;99.90;;;;;;5011894;28;20211;-63
2022/07/06 08:26:19;;;;;;;4.83;1.17;;;17.00;99.90;;;;;;5011597;28;20634;-60
2022/07/06 08:28:46;;;;;;;5.10;1.30;;;17.00;99.90;;;;;;5011311;28;20234;-64
2022/07/06 08:31:13;;;;;;;5.90;0.90;;;17.10;99.90;;;;;;5011835;28;20218;-63
2022/07/06 08:33:39;;;;;;;2.17;1.00;;;17.00;99.90;;;;;;5011864;28;20265;-64
2022/07/06 08:36:07;;;;;;;4.87;1.30;;;17.30;99.90;;;;;;5011295;28;20238;-66
2022/07/06 08:38:33;;;;;;;4.57;1.20;;;17.50;99.90;;;;;;5011371;28;20234;-63
2022/07/06 08:41:00;;;;;;;2.77;0.83;;;17.80;99.90;;;;;;5010694;28;20202;-64
2022/07/06 08:43:28;;;;;;;3.10;1.00;;;18.00;99.90;;;;;;5011642;28;20203;-63
2022/07/06 08:45:55;;;;;;;3.23;0.87;;;18.30;99.90;;;;;;5010881;28;20210;-67
2022/07/06 08:48:24;;;;;;;2.67;0.87;;;18.50;99.90;;;;;;5011212;28;20254;-64
2022/07/06 08:50:52;;;;;;;3.00;0.80;;;18.60;99.90;;;;;;5011744;28;20273;-63
2022/07/06 08:53:19;;;;;;;4.40;0.67;;;18.20;99.90;;;;;;5011217;28;20203;-63
2022/07/06 08:55:47;;;;;;;7.23;0.80;;;18.20;99.90;;;;;;5011595;28;20210;-65
2022/07/06 08:58:14;;;;;;;2.13;0.70;;;18.00;99.90;;;;;;5010817;28;20241;-63
2022/07/06 09:00:43;;;;;;;1.73;0.73;;;17.90;99.90;;;;;;5010927;28;20661;-64
2022/07/06 09:03:12;;;;;;;3.27;0.70;;;17.70;99.90;;;;;;5011413;28;20326;-65
2022/07/06 09:05:41;;;;;;;3.37;0.90;;;17.80;99.90;;;;;;5011276;28;20650;-67
2022/07/06 09:08:08;;;;;;;3.27;1.07;;;18.00;99.90;;;;;;5011187;28;20230;-65
2022/07/06 09:10:34;;;;;;;2.50;0.83;;;17.90;99.90;;;;;;5012658;28;20269;-65
2022/07/06 09:13:05;;;;;;;2.97;0.97;;;17.60;99.90;;;;;;5010988;28;20207;-64
2022/07/06 09:15:32;;;;;;;1.70;0.80;;;17.60;99.90;;;;;;5012370;28;20207;-66
2022/07/06 09:18:00;;;;;;;1.10;0.80;;;17.60;99.90;;;;;;5010861;28;20223;-64
2022/07/06 09:20:27;;;;;;;1.73;0.70;;;17.90;99.90;;;;;;5011619;28;20218;-66
2022/07/06 09:22:58;;;;;;;2.73;0.60;;;18.20;99.90;;;;;;5010790;28;20238;-66
2022/07/06 09:25:26;;;;;;;4.43;0.83;;;18.40;99.90;;;;;;5011570;28;20286;-67
2022/07/06 09:27:54;;;;;;;2.70;0.70;;;18.70;99.90;;;;;;5011331;28;20254;-65
2022/07/06 09:30:21;;;;;;;0.80;0.50;;;18.80;99.90;;;;;;5011075;28;20298;-65
2022/07/06 09:32:51;;;;;;;4.73;0.67;;;18.90;99.90;;;;;;5012991;28;20748;-65
2022/07/06 09:35:23;;;;;;;3.13;0.80;;;19.00;99.90;;;;;;5014375;28;20674;-65
2022/07/06 09:38:01;;;;;;;4.00;0.90;;;18.80;99.90;;;;;;5014513;28;20230;-65
2022/07/06 09:40:28;;;;;;;4.07;0.70;;;18.90;99.90;;;;;;5014819;28;20265;-62
2022/07/06 09:43:08;;;;;;;0.90;0.60;;;18.50;99.90;;;;;;5014130;28;20784;-62
2022/07/06 09:45:36;;;;;;;3.77;0.93;;;18.60;99.90;;;;;;5014907;28;20242;-64
2022/07/06 09:48:07;;;;;;;2.20;0.73;;;18.50;99.90;;;;;;5008506;28;20762;-64
2022/07/06 09:50:41;;;;;;;2.70;0.80;;;18.70;99.90;;;;;;4994876;28;20602;-63
2022/07/06 09:53:09;;;;;;;3.40;0.80;;;19.00;99.90;;;;;;4994287;28;20634;-64
2022/07/06 09:55:35;;;;;;;1.13;0.60;;;19.10;99.90;;;;;;4995027;28;20203;-60
2022/07/06 09:58:02;;;;;;;2.00;0.77;;;18.90;99.90;;;;;;4994713;28;20232;-65
2022/07/06 10:00:29;;;;;;;3.80;1.00;;;19.00;99.90;;;;;;4995060;28;20212;-67
2022/07/06 10:02:56;;;;;;;1.90;0.50;;;19.00;99.90;;;;;;4995072;28;20638;-66
2022/07/06 10:05:26;;;;;;;1.93;0.80;;;18.90;99.90;;;;;;4995875;28;20696;-64
2022/07/06 10:07:57;;;;;;;0.90;0.60;;;18.80;99.90;;;;;;4995580;28;20231;-64
2022/07/06 10:10:26;;;;;;;5.20;1.10;;;18.80;99.90;;;;;;4994396;28;20215;-64
2022/07/06 10:12:55;;;;;;;1.70;0.50;;;18.40;99.90;;;;;;4993757;28;20295;-62
2022/07/06 10:15:23;;;;;;;3.03;0.70;;;18.20;99.90;;;;;;4994509;28;20258;-65
2022/07/06 10:17:51;;;;;;;4.87;0.60;;;18.30;99.90;;;;;;4993661;28;20306;-65
2022/07/06 10:20:19;;;;;;;1.47;0.80;;;18.40;99.90;;;;;;4994233;28;20212;-65
2022/07/06 10:22:47;;;;;;;2.43;0.80;;;18.20;99.90;;;;;;4993934;28;20678;-64
2022/07/06 10:25:17;;;;;;;4.37;0.90;;;18.50;99.90;;;;;;4994556;28;20219;-63
2022/07/06 10:27:43;;;;;;;2.30;0.90;;;18.50;99.90;;;;;;4994046;28;20649;-63
2022/07/06 10:30:11;;;;;;;1.60;0.77;;;18.30;99.90;;;;;;4993856;28;20261;-62
2022/07/06 10:32:41;;;;;;;1.20;0.80;;;18.00;99.90;;;;;;4993825;28;20208;-63
2022/07/06 10:35:09;;;;;;;2.40;0.70;;;18.20;99.90;;;;;;4993741;28;20207;-64
2022/07/06 10:37:36;;;;;;;3.27;0.70;;;18.40;99.90;;;;;;4994044;28;20650;-65
2022/07/06 10:42:56;;;;;;;2.30;0.70;;;18.80;99.90;;;;;;4992612;28;20238;-63
2022/07/06 10:45:51;;;;;;;2.30;0.77;;;19.00;99.90;;;;;;4993561;28;20245;-66
2022/07/06 10:48:18;;;;;;;2.47;0.90;;;19.40;99.90;;;;;;4993371;28;20227;-65
2022/07/06 10:50:48;;;;;;;1.90;0.67;;;19.50;99.90;;;;;;4993594;28;20208;-63
2022/07/06 10:53:17;;;;;;;2.20;0.90;;;19.90;99.90;;;;;;4996745;28;20211;-63
2022/07/06 10:55:46;;;;;;;2.13;0.90;;;19.90;99.90;;;;;;5013576;28;20273;-63
2022/07/06 10:58:14;;;;;;;2.80;0.73;;;19.90;99.90;;;;;;5012733;28;20797;-62
2022/07/06 11:00:51;;;;;;;4.23;0.87;;;20.30;99.90;;;;;;5005031;28;20646;-63
2022/07/06 11:03:32;;;;;;;0.97;0.50;;;20.60;99.90;;;;;;4993377;28;20598;-62
2022/07/06 11:05:59;;;;;;;2.03;0.73;;;20.20;99.90;;;;;;4992967;28;20214;-63
2022/07/06 11:08:51;;;;;;;1.27;0.60;;;20.00;99.90;;;;;;4992993;28;20650;-63
2022/07/06 11:11:19;;;;;;;3.37;0.50;;;19.60;99.90;;;;;;4993158;28;20188;-63
2022/07/06 11:13:56;;;;;;;2.10;0.53;;;19.80;99.90;;;;;;4993025;28;20207;-62
2022/07/06 11:16:26;;;;;;;1.67;0.50;;;20.10;99.90;;;;;;4993310;28;20207;-63
2022/07/06 11:19:05;;;;;;;0.67;0.33;;;20.40;99.90;;;;;;4993207;28;20231;-62
2022/07/06 11:21:35;;;;;;;1.63;0.50;;;20.10;99.90;;;;;;4992963;28;20234;-62
2022/07/06 11:24:03;;;;;;;1.63;0.57;;;20.30;99.90;;;;;;4992536;28;20227;-62
2022/07/06 11:26:31;;;;;;;1.63;0.57;;;20.30;99.90;;;;;;4992909;28;20211;-62
2022/07/06 11:29:00;;;;;;;1.27;0.60;;;19.90;99.90;;;;;;4993191;28;20228;-65
2022/07/06 11:31:27;;;;;;;0.50;0.40;;;20.00;99.90;;;;;;4992718;28;20215;-66
2022/07/06 11:33:54;;;;;;;6.20;0.60;;;19.80;99.90;;;;;;4992968;28;20208;-67
2022/07/06 11:36:22;;;;;;;2.97;0.60;;;20.00;99.90;;;;;;4992145;28;20207;-67
2022/07/06 11:38:50;;;;;;;1.23;0.43;;;19.80;99.90;;;;;;4992802;28;20231;-67
2022/07/06 11:41:18;;;;;;;2.00;0.90;;;20.00;99.90;;;;;;4992203;28;20216;-67
2022/07/06 11:43:45;;;;;;;2.63;0.90;;;19.80;99.90;;;;;;4992645;28;20301;-69
2022/07/06 11:46:25;;;;;;;2.50;0.80;;;19.80;99.90;;;;;;4992571;28;20224;-66
2022/07/06 11:48:54;;;;;;;3.87;0.90;;;19.70;99.90;;;;;;4992394;28;20231;-66
2022/07/06 11:51:21;;;;;;;2.90;0.93;;;19.70;99.90;;;;;;4992056;28;20277;-66
2022/07/06 11:53:51;;;;;;;1.13;0.70;;;19.50;99.90;;;;;;4992431;28;20204;-67
2022/07/06 11:56:21;;;;;;;3.33;0.90;;;19.20;99.90;;;;;;4992302;28;20261;-68
2022/07/06 11:58:49;;;;;;;3.67;1.20;;;19.20;99.90;;;;;;4992415;28;20227;-68
2022/07/06 12:01:16;;;;;;;7.60;0.97;;;18.90;99.90;;;;;;4991739;28;20678;-70
2022/07/06 12:03:46;;;;;;;1.00;0.70;;;19.00;99.90;;;;;;4992134;28;20227;-68
2022/07/06 12:06:18;;;;;;;3.93;1.00;;;19.10;99.90;;;;;;4991554;28;20638;-66
2022/07/06 12:08:47;;;;;;;3.23;1.07;;;19.30;99.90;;;;;;4992634;28;20236;-69
2022/07/06 12:11:21;;;;;;;3.43;1.20;;;19.50;99.90;;;;;;4991732;28;20211;-68
2022/07/06 12:13:48;;;;;;;1.10;0.80;;;19.60;99.90;;;;;;4992185;28;20206;-69
2022/07/06 12:16:16;;;;;;;4.47;1.20;;;19.70;99.90;;;;;;4991718;28;20211;-69
2022/07/06 12:18:45;;;;;;;6.17;1.40;;;20.20;99.90;;;;;;4992040;28;20239;-67
2022/07/06 12:21:16;;;;;;;1.67;0.80;;;20.20;99.90;;;;;;4991738;28;20207;-67
2022/07/06 12:23:44;;;;;;;3.10;1.43;;;20.80;99.90;;;;;;4991827;28;20224;-66
2022/07/06 12:26:12;;;;;;;3.33;0.97;;;21.20;99.90;;;;;;4992102;28;20211;-68
2022/07/06 12:28:39;;;;;;;5.27;1.20;;;21.20;99.90;;;;;;4991908;28;20246;-66
2022/07/06 12:31:06;;;;;;;5.30;1.40;;;21.30;99.90;;;;;;4991737;28;20196;-68
2022/07/06 12:33:33;;;;;;;5.60;1.20;;;21.50;99.90;;;;;;4992000;28;20210;-66
2022/07/06 12:36:15;;;;;;;2.07;1.10;;;21.30;99.90;;;;;;4991486;28;20239;-69
2022/07/06 12:38:46;;;;;;;1.67;0.80;;;21.40;99.90;;;;;;4992072;28;20227;-65
2022/07/06 12:41:29;;;;;;;1.17;0.60;;;21.70;99.90;;;;;;4991494;28;20207;-66
2022/07/06 12:44:10;;;;;;;3.57;0.80;;;21.40;99.90;;;;;;4991791;28;20277;-65
2022/07/06 12:46:38;;;;;;;1.50;0.60;;;21.30;99.90;;;;;;4991380;28;20686;-64
2022/07/06 12:49:13;;;;;;;2.27;0.60;;;21.50;99.90;;;;;;4991382;28;20318;-65
2022/07/06 12:51:59;;;;;;;1.43;0.50;;;21.70;99.90;;;;;;4991248;28;20207;-64
2022/07/06 12:54:27;;;;;;;0.93;0.60;;;21.60;99.90;;;;;;4991486;28;20266;-65
2022/07/06 12:57:02;;;;;;;0.83;0.20;;;21.50;99.90;;;;;;4991645;28;20218;-66
2022/07/06 12:59:29;;;;;;;2.20;0.60;;;21.20;99.90;;;;;;4991707;28;20242;-66
2022/07/06 13:01:56;;;;;;;2.37;0.50;;;20.60;99.90;;;;;;4990978;28;20750;-64